sensor_id;sensor_type;location;lat;lon;timestamp;temperature;humidity
8114;DHT22;4099;52.684;9.918;2022-09-30T00:02:43;8.10;99.90
8114;DHT22;4099;52.684;9.918;2022-09-30T00:07:50;8.30;99.90
8114;DHT22;4099;52.684;9.918;2022-09-30T00:12:58;8.40;99.90
8114;DHT22;4099;52.684;9.918;2022-09-30T00:18:05;8.30;99.90
8114;DHT22;4099;52.684;9.918;2022-09-30T00:23:11;8.10;99.90
8114;DHT22;4099;52.684;9.918;2022-09-30T00:28:17;7.90;99.90
8114;DHT22;4099;52.684;9.918;2022-09-30T00:33:26;7.80;99.90
8114;DHT22;4099;52.684;9.918;2022-09-30T00:38:32;8.00;99.90
8114;DHT22;4099;52.684;9.918;2022-09-30T00:43:45;8.10;99.90
8114;DHT22;4099;52.684;9.918;2022-09-30T00:49:03;7.90;99.90
8114;DHT22;4099;52.684;9.918;2022-09-30T00:54:11;8.00;99.90
8114;DHT22;4099;52.684;9.918;2022-09-30T00:59:28;7.70;99.90
8114;DHT22;4099;52.684;9.918;2022-09-30T01:04:46;7.70;99.90
8114;DHT22;4099;52.684;9.918;2022-09-30T01:09:49;7.50;99.90
8114;DHT22;4099;52.684;9.918;2022-09-30T01:14:59;7.30;99.90
8114;DHT22;4099;52.684;9.918;2022-09-30T01:20:25;7.20;99.90
8114;DHT22;4099;52.684;9.918;2022-09-30T01:31:28;7.10;99.90
8114;DHT22;4099;52.684;9.918;2022-09-30T01:36:55;7.20;99.90
8114;DHT22;4099;52.684;9.918;2022-09-30T01:42:12;7.30;99.90
8114;DHT22;4099;52.684;9.918;2022-09-30T01:47:28;7.30;99.90
8114;DHT22;4099;52.684;9.918;2022-09-30T01:52:38;7.40;99.90
8114;DHT22;4099;52.684;9.918;2022-09-30T01:57:53;7.20;99.90
8114;DHT22;4099;52.684;9.918;2022-09-30T02:03:07;6.80;99.90
8114;DHT22;4099;52.684;9.918;2022-09-30T02:08:20;6.70;99.90
8114;DHT22;4099;52.684;9.918;2022-09-30T02:13:28;6.70;99.90
8114;DHT22;4099;52.684;9.918;2022-09-30T02:18:38;6.80;99.90
8114;DHT22;4099;52.684;9.918;2022-09-30T02:23:46;6.90;99.90
8114;DHT22;4099;52.684;9.918;2022-09-30T02:28:57;6.70;99.90
8114;DHT22;4099;52.684;9.918;2022-09-30T02:34:19;6.40;99.90
8114;DHT22;4099;52.684;9.918;2022-09-30T02:39:31;6.40;99.90
8114;DHT22;4099;52.684;9.918;2022-09-30T02:44:37;6.40;99.90
8114;DHT22;4099;52.684;9.918;2022-09-30T02:49:46;6.00;99.90
8114;DHT22;4099;52.684;9.918;2022-09-30T02:55:03;5.80;99.90
8114;DHT22;4099;52.684;9.918;2022-09-30T03:00:10;6.00;99.90
8114;DHT22;4099;52.684;9.918;2022-09-30T03:05:19;6.00;99.90
8114;DHT22;4099;52.684;9.918;2022-09-30T03:10:27;6.10;99.90
8114;DHT22;4099;52.684;9.918;2022-09-30T03:15:43;5.90;99.90
8114;DHT22;4099;52.684;9.918;2022-09-30T03:21:05;6.00;99.90
8114;DHT22;4099;52.684;9.918;2022-09-30T03:26:24;6.00;99.90
8114;DHT22;4099;52.684;9.918;2022-09-30T03:31:37;6.00;99.90
8114;DHT22;4099;52.684;9.918;2022-09-30T03:36:51;6.00;99.90
8114;DHT22;4099;52.684;9.918;2022-09-30T03:42:07;5.90;99.90
8114;DHT22;4099;52.684;9.918;2022-09-30T03:47:16;5.50;99.90
8114;DHT22;4099;52.684;9.918;2022-09-30T03:52:31;5.30;99.90
8114;DHT22;4099;52.684;9.918;2022-09-30T03:57:40;5.20;99.90
8114;DHT22;4099;52.684;9.918;2022-09-30T04:02:44;5.40;99.90
8114;DHT22;4099;52.684;9.918;2022-09-30T04:07:53;5.40;99.90
8114;DHT22;4099;52.684;9.918;2022-09-30T04:13:01;5.50;99.90
8114;DHT22;4099;52.684;9.918;2022-09-30T04:18:09;5.40;99.90
8114;DHT22;4099;52.684;9.918;2022-09-30T04:23:19;5.60;99.90
8114;DHT22;4099;52.684;9.918;2022-09-30T04:28:22;5.80;99.90
8114;DHT22;4099;52.684;9.918;2022-09-30T04:33:30;5.80;99.90
8114;DHT22;4099;52.684;9.918;2022-09-30T04:38:36;5.70;99.90
8114;DHT22;4099;52.684;9.918;2022-09-30T04:43:46;5.70;99.90
8114;DHT22;4099;52.684;9.918;2022-09-30T04:48:49;5.70;99.90
8114;DHT22;4099;52.684;9.918;2022-09-30T04:53:54;5.50;99.90
8114;DHT22;4099;52.684;9.918;2022-09-30T04:58:59;5.20;99.90
8114;DHT22;4099;52.684;9.918;2022-09-30T05:04:07;5.20;99.90
8114;DHT22;4099;52.684;9.918;2022-09-30T05:09:14;4.70;99.90
8114;DHT22;4099;52.684;9.918;2022-09-30T05:14:23;4.60;99.90
8114;DHT22;4099;52.684;9.918;2022-09-30T05:19:29;5.00;99.90
8114;DHT22;4099;52.684;9.918;2022-09-30T05:24:34;5.20;99.90
8114;DHT22;4099;52.684;9.918;2022-09-30T05:29:42;5.20;99.90
8114;DHT22;4099;52.684;9.918;2022-09-30T05:34:49;4.70;99.90
8114;DHT22;4099;52.684;9.918;2022-09-30T05:39:54;4.50;99.90
8114;DHT22;4099;52.684;9.918;2022-09-30T05:45:04;4.30;99.90
8114;DHT22;4099;52.684;9.918;2022-09-30T05:50:09;4.70;99.90
8114;DHT22;4099;52.684;9.918;2022-09-30T05:55:21;4.70;99.90
8114;DHT22;4099;52.684;9.918;2022-09-30T06:00:29;4.80;99.90
8114;DHT22;4099;52.684;9.918;2022-09-30T06:05:37;4.90;99.90
8114;DHT22;4099;52.684;9.918;2022-09-30T06:10:45;5.00;99.90
8114;DHT22;4099;52.684;9.918;2022-09-30T06:15:55;5.10;99.90
8114;DHT22;4099;52.684;9.918;2022-09-30T06:21:00;5.20;99.90
8114;DHT22;4099;52.684;9.918;2022-09-30T06:26:06;5.40;99.90
8114;DHT22;4099;52.684;9.918;2022-09-30T06:31:18;5.60;99.90
8114;DHT22;4099;52.684;9.918;2022-09-30T06:36:39;6.00;99.90
8114;DHT22;4099;52.684;9.918;2022-09-30T06:41:56;6.20;99.90
8114;DHT22;4099;52.684;9.918;2022-09-30T06:47:13;6.30;99.90
8114;DHT22;4099;52.684;9.918;2022-09-30T06:52:19;6.40;99.90
8114;DHT22;4099;52.684;9.918;2022-09-30T06:57:36;6.40;99.90
8114;DHT22;4099;52.684;9.918;2022-09-30T07:02:46;6.60;99.90
8114;DHT22;4099;52.684;9.918;2022-09-30T07:07:51;6.70;99.90
8114;DHT22;4099;52.684;9.918;2022-09-30T07:13:05;7.00;99.90
8114;DHT22;4099;52.684;9.918;2022-09-30T07:18:10;7.00;99.90
8114;DHT22;4099;52.684;9.918;2022-09-30T07:23:25;7.00;99.90
8114;DHT22;4099;52.684;9.918;2022-09-30T07:28:36;7.10;99.90
8114;DHT22;4099;52.684;9.918;2022-09-30T07:33:47;7.40;99.90
8114;DHT22;4099;52.684;9.918;2022-09-30T07:38:55;7.70;99.90
8114;DHT22;4099;52.684;9.918;2022-09-30T07:44:16;8.00;99.90
8114;DHT22;4099;52.684;9.918;2022-09-30T07:49:26;8.50;99.90
8114;DHT22;4099;52.684;9.918;2022-09-30T07:54:31;8.80;99.90
8114;DHT22;4099;52.684;9.918;2022-09-30T07:59:39;9.30;99.90
8114;DHT22;4099;52.684;9.918;2022-09-30T08:04:45;9.60;99.90
8114;DHT22;4099;52.684;9.918;2022-09-30T08:09:49;10.00;99.90
8114;DHT22;4099;52.684;9.918;2022-09-30T08:15:03;10.50;99.90
8114;DHT22;4099;52.684;9.918;2022-09-30T08:20:10;10.80;99.90
8114;DHT22;4099;52.684;9.918;2022-09-30T08:25:21;11.10;99.90
8114;DHT22;4099;52.684;9.918;2022-09-30T08:30:25;11.30;99.90
8114;DHT22;4099;52.684;9.918;2022-09-30T08:35:31;11.40;99.90
8114;DHT22;4099;52.684;9.918;2022-09-30T08:40:46;11.60;99.90
8114;DHT22;4099;52.684;9.918;2022-09-30T08:46:06;11.70;99.90
8114;DHT22;4099;52.684;9.918;2022-09-30T08:51:34;11.90;99.90
8114;DHT22;4099;52.684;9.918;2022-09-30T08:56:45;12.00;99.90
8114;DHT22;4099;52.684;9.918;2022-09-30T09:01:57;12.30;99.90
8114;DHT22;4099;52.684;9.918;2022-09-30T09:07:09;12.50;99.90
8114;DHT22;4099;52.684;9.918;2022-09-30T09:12:27;12.70;99.90
8114;DHT22;4099;52.684;9.918;2022-09-30T09:17:57;12.90;99.90
8114;DHT22;4099;52.684;9.918;2022-09-30T09:23:10;12.80;99.90
8114;DHT22;4099;52.684;9.918;2022-09-30T09:28:28;12.90;95.60
8114;DHT22;4099;52.684;9.918;2022-09-30T09:33:37;13.20;74.10
8114;DHT22;4099;52.684;9.918;2022-09-30T09:38:54;13.50;1.00
8114;DHT22;4099;52.684;9.918;2022-09-30T09:44:13;13.60;1.00
8114;DHT22;4099;52.684;9.918;2022-09-30T09:49:32;13.70;1.00
8114;DHT22;4099;52.684;9.918;2022-09-30T09:54:43;13.80;1.00
8114;DHT22;4099;52.684;9.918;2022-09-30T10:00:00;14.00;1.00
8114;DHT22;4099;52.684;9.918;2022-09-30T10:05:32;14.10;1.00
8114;DHT22;4099;52.684;9.918;2022-09-30T10:10:48;14.20;1.00
8114;DHT22;4099;52.684;9.918;2022-09-30T10:16:08;14.40;1.00
8114;DHT22;4099;52.684;9.918;2022-09-30T10:21:31;14.50;1.00
8114;DHT22;4099;52.684;9.918;2022-09-30T10:26:47;14.70;1.00
8114;DHT22;4099;52.684;9.918;2022-09-30T10:31:55;14.90;1.00
8114;DHT22;4099;52.684;9.918;2022-09-30T10:37:08;15.00;1.00
8114;DHT22;4099;52.684;9.918;2022-09-30T10:42:33;14.90;1.00
8114;DHT22;4099;52.684;9.918;2022-09-30T10:47:43;15.00;1.00
8114;DHT22;4099;52.684;9.918;2022-09-30T10:52:56;15.10;1.00
8114;DHT22;4099;52.684;9.918;2022-09-30T10:58:25;15.30;1.00
8114;DHT22;4099;52.684;9.918;2022-09-30T11:03:51;15.50;1.00
8114;DHT22;4099;52.684;9.918;2022-09-30T11:09:11;15.60;1.00
8114;DHT22;4099;52.684;9.918;2022-09-30T11:14:32;15.70;1.00
8114;DHT22;4099;52.684;9.918;2022-09-30T11:19:50;16.00;99.90
8114;DHT22;4099;52.684;9.918;2022-09-30T11:24:57;16.20;99.90
8114;DHT22;4099;52.684;9.918;2022-09-30T11:30:15;16.40;1.00
8114;DHT22;4099;52.684;9.918;2022-09-30T11:35:46;16.60;1.00
8114;DHT22;4099;52.684;9.918;2022-09-30T11:40:59;16.50;56.00
8114;DHT22;4099;52.684;9.918;2022-09-30T11:46:19;16.50;99.90
8114;DHT22;4099;52.684;9.918;2022-09-30T11:51:38;17.00;99.90
8114;DHT22;4099;52.684;9.918;2022-09-30T11:56:52;17.00;1.00
8114;DHT22;4099;52.684;9.918;2022-09-30T12:02:03;16.50;1.00
8114;DHT22;4099;52.684;9.918;2022-09-30T12:07:23;16.40;99.90
8114;DHT22;4099;52.684;9.918;2022-09-30T12:12:31;16.80;1.00
8114;DHT22;4099;52.684;9.918;2022-09-30T12:17:42;17.00;1.00
8114;DHT22;4099;52.684;9.918;2022-09-30T12:22:49;16.90;99.90
8114;DHT22;4099;52.684;9.918;2022-09-30T12:27:56;16.90;1.00
8114;DHT22;4099;52.684;9.918;2022-09-30T12:33:37;17.30;1.00
8114;DHT22;4099;52.684;9.918;2022-09-30T12:39:35;17.80;1.00
8114;DHT22;4099;52.684;9.918;2022-09-30T12:45:14;17.80;1.00
8114;DHT22;4099;52.684;9.918;2022-09-30T12:50:26;17.50;1.00
8114;DHT22;4099;52.684;9.918;2022-09-30T12:55:38;17.10;99.90
8114;DHT22;4099;52.684;9.918;2022-09-30T13:00:58;17.30;1.00
8114;DHT22;4099;52.684;9.918;2022-09-30T13:06:07;17.90;1.00
8114;DHT22;4099;52.684;9.918;2022-09-30T13:11:37;18.00;62.80
8114;DHT22;4099;52.684;9.918;2022-09-30T13:17:23;18.10;1.00
8114;DHT22;4099;52.684;9.918;2022-09-30T13:22:45;18.00;1.00
8114;DHT22;4099;52.684;9.918;2022-09-30T13:28:28;17.60;1.00
8114;DHT22;4099;52.684;9.918;2022-09-30T13:34:02;17.90;1.00
8114;DHT22;4099;52.684;9.918;2022-09-30T13:39:19;17.80;99.90
8114;DHT22;4099;52.684;9.918;2022-09-30T13:44:38;17.20;1.00
8114;DHT22;4099;52.684;9.918;2022-09-30T13:49:58;17.70;1.00
8114;DHT22;4099;52.684;9.918;2022-09-30T13:55:14;17.40;1.00
8114;DHT22;4099;52.684;9.918;2022-09-30T14:00:35;17.20;1.00
8114;DHT22;4099;52.684;9.918;2022-09-30T14:05:58;16.80;1.00
8114;DHT22;4099;52.684;9.918;2022-09-30T14:11:34;16.30;1.00
8114;DHT22;4099;52.684;9.918;2022-09-30T14:17:00;16.60;99.90
8114;DHT22;4099;52.684;9.918;2022-09-30T14:22:15;17.10;1.00
8114;DHT22;4099;52.684;9.918;2022-09-30T14:27:43;16.90;1.00
8114;DHT22;4099;52.684;9.918;2022-09-30T14:32:55;16.40;1.00
8114;DHT22;4099;52.684;9.918;2022-09-30T14:38:03;16.30;1.00
8114;DHT22;4099;52.684;9.918;2022-09-30T14:43:14;16.20;1.00
8114;DHT22;4099;52.684;9.918;2022-09-30T14:48:22;16.30;1.00
8114;DHT22;4099;52.684;9.918;2022-09-30T14:53:33;16.10;1.00
8114;DHT22;4099;52.684;9.918;2022-09-30T14:58:41;16.10;1.00
8114;DHT22;4099;52.684;9.918;2022-09-30T15:03:55;16.00;1.00
8114;DHT22;4099;52.684;9.918;2022-09-30T15:09:03;16.20;1.00
8114;DHT22;4099;52.684;9.918;2022-09-30T15:14:18;16.10;1.00
8114;DHT22;4099;52.684;9.918;2022-09-30T15:19:46;16.20;1.00
8114;DHT22;4099;52.684;9.918;2022-09-30T15:24:52;16.20;1.00
8114;DHT22;4099;52.684;9.918;2022-09-30T15:30:02;16.20;1.00
8114;DHT22;4099;52.684;9.918;2022-09-30T15:35:07;16.10;19.90
8114;DHT22;4099;52.684;9.918;2022-09-30T15:40:22;16.10;1.00
8114;DHT22;4099;52.684;9.918;2022-09-30T15:45:43;16.00;1.00
8114;DHT22;4099;52.684;9.918;2022-09-30T15:50:51;15.80;1.00
8114;DHT22;4099;52.684;9.918;2022-09-30T15:55:58;15.60;1.00
8114;DHT22;4099;52.684;9.918;2022-09-30T16:01:21;15.40;99.90
8114;DHT22;4099;52.684;9.918;2022-09-30T16:06:29;15.20;1.00
8114;DHT22;4099;52.684;9.918;2022-09-30T16:11:43;15.00;99.90
8114;DHT22;4099;52.684;9.918;2022-09-30T16:17:02;14.80;1.00
8114;DHT22;4099;52.684;9.918;2022-09-30T16:22:47;14.70;99.90
8114;DHT22;4099;52.684;9.918;2022-09-30T16:28:12;14.40;1.00
8114;DHT22;4099;52.684;9.918;2022-09-30T16:33:27;14.10;1.00
8114;DHT22;4099;52.684;9.918;2022-09-30T16:38:45;13.60;99.90
8114;DHT22;4099;52.684;9.918;2022-09-30T16:43:51;13.50;1.00
8114;DHT22;4099;52.684;9.918;2022-09-30T16:49:12;13.30;1.00
8114;DHT22;4099;52.684;9.918;2022-09-30T16:54:23;13.10;1.00
8114;DHT22;4099;52.684;9.918;2022-09-30T16:59:29;13.10;1.00
8114;DHT22;4099;52.684;9.918;2022-09-30T17:04:34;12.70;1.00
8114;DHT22;4099;52.684;9.918;2022-09-30T17:09:43;12.60;1.00
8114;DHT22;4099;52.684;9.918;2022-09-30T17:15:06;12.50;1.00
8114;DHT22;4099;52.684;9.918;2022-09-30T17:20:11;12.10;1.00
8114;DHT22;4099;52.684;9.918;2022-09-30T17:25:20;11.70;14.20
8114;DHT22;4099;52.684;9.918;2022-09-30T17:30:27;11.40;99.90
8114;DHT22;4099;52.684;9.918;2022-09-30T17:35:32;11.10;99.90
8114;DHT22;4099;52.684;9.918;2022-09-30T17:40:38;11.10;99.90
8114;DHT22;4099;52.684;9.918;2022-09-30T17:46:05;10.90;99.90
8114;DHT22;4099;52.684;9.918;2022-09-30T17:51:11;10.90;99.90
8114;DHT22;4099;52.684;9.918;2022-09-30T17:56:19;10.70;99.90
8114;DHT22;4099;52.684;9.918;2022-09-30T18:01:24;10.60;99.90
8114;DHT22;4099;52.684;9.918;2022-09-30T18:06:30;10.60;99.90
8114;DHT22;4099;52.684;9.918;2022-09-30T18:11:37;10.60;99.90
8114;DHT22;4099;52.684;9.918;2022-09-30T18:16:45;10.60;99.90
8114;DHT22;4099;52.684;9.918;2022-09-30T18:21:52;10.20;99.90
8114;DHT22;4099;52.684;9.918;2022-09-30T18:26:56;10.10;99.90
8114;DHT22;4099;52.684;9.918;2022-09-30T18:32:06;9.90;99.90
8114;DHT22;4099;52.684;9.918;2022-09-30T18:37:09;10.00;99.90
8114;DHT22;4099;52.684;9.918;2022-09-30T18:42:18;9.80;99.90
8114;DHT22;4099;52.684;9.918;2022-09-30T18:47:25;9.90;99.90
8114;DHT22;4099;52.684;9.918;2022-09-30T18:52:28;9.80;99.90
8114;DHT22;4099;52.684;9.918;2022-09-30T18:57:40;9.70;99.90
8114;DHT22;4099;52.684;9.918;2022-09-30T19:02:48;9.60;99.90
8114;DHT22;4099;52.684;9.918;2022-09-30T19:07:55;9.60;99.90
8114;DHT22;4099;52.684;9.918;2022-09-30T19:13:05;9.50;99.90
8114;DHT22;4099;52.684;9.918;2022-09-30T19:18:24;9.50;99.90
8114;DHT22;4099;52.684;9.918;2022-09-30T19:23:30;9.50;99.90
8114;DHT22;4099;52.684;9.918;2022-09-30T19:28:35;9.20;99.90
8114;DHT22;4099;52.684;9.918;2022-09-30T19:33:40;9.10;99.90
8114;DHT22;4099;52.684;9.918;2022-09-30T19:38:46;9.20;99.90
8114;DHT22;4099;52.684;9.918;2022-09-30T19:43:52;9.10;99.90
8114;DHT22;4099;52.684;9.918;2022-09-30T19:48:58;8.90;99.90
8114;DHT22;4099;52.684;9.918;2022-09-30T19:54:06;8.80;99.90
8114;DHT22;4099;52.684;9.918;2022-09-30T19:59:09;8.40;99.90
8114;DHT22;4099;52.684;9.918;2022-09-30T20:04:23;8.50;99.90
8114;DHT22;4099;52.684;9.918;2022-09-30T20:09:34;8.40;99.90
8114;DHT22;4099;52.684;9.918;2022-09-30T20:14:43;8.50;99.90
8114;DHT22;4099;52.684;9.918;2022-09-30T20:20:08;8.60;99.90
8114;DHT22;4099;52.684;9.918;2022-09-30T20:25:29;8.70;99.90
8114;DHT22;4099;52.684;9.918;2022-09-30T20:30:40;8.60;99.90
8114;DHT22;4099;52.684;9.918;2022-09-30T20:35:49;8.60;99.90
8114;DHT22;4099;52.684;9.918;2022-09-30T20:40:53;8.60;99.90
8114;DHT22;4099;52.684;9.918;2022-09-30T20:45:58;8.60;99.90
8114;DHT22;4099;52.684;9.918;2022-09-30T20:51:10;8.60;99.90
8114;DHT22;4099;52.684;9.918;2022-09-30T20:56:27;8.60;99.90
8114;DHT22;4099;52.684;9.918;2022-09-30T21:01:33;8.60;99.90
8114;DHT22;4099;52.684;9.918;2022-09-30T21:06:41;8.50;99.90
8114;DHT22;4099;52.684;9.918;2022-09-30T21:11:46;8.50;99.90
8114;DHT22;4099;52.684;9.918;2022-09-30T21:16:49;8.50;99.90
8114;DHT22;4099;52.684;9.918;2022-09-30T21:21:57;8.50;99.90
8114;DHT22;4099;52.684;9.918;2022-09-30T21:27:06;8.50;99.90
8114;DHT22;4099;52.684;9.918;2022-09-30T21:32:13;8.40;99.90
8114;DHT22;4099;52.684;9.918;2022-09-30T21:37:18;8.50;99.90
8114;DHT22;4099;52.684;9.918;2022-09-30T21:42:21;8.40;99.90
8114;DHT22;4099;52.684;9.918;2022-09-30T21:47:27;8.40;99.90
8114;DHT22;4099;52.684;9.918;2022-09-30T21:52:36;8.40;99.90
8114;DHT22;4099;52.684;9.918;2022-09-30T21:57:40;8.50;99.90
8114;DHT22;4099;52.684;9.918;2022-09-30T22:02:46;8.40;99.90
8114;DHT22;4099;52.684;9.918;2022-09-30T22:07:52;8.40;99.90
8114;DHT22;4099;52.684;9.918;2022-09-30T22:13:01;8.50;99.90
8114;DHT22;4099;52.684;9.918;2022-09-30T22:18:05;8.50;99.90
8114;DHT22;4099;52.684;9.918;2022-09-30T22:23:12;8.50;99.90
8114;DHT22;4099;52.684;9.918;2022-09-30T22:28:21;8.60;99.90
8114;DHT22;4099;52.684;9.918;2022-09-30T22:33:24;8.60;99.90
8114;DHT22;4099;52.684;9.918;2022-09-30T22:38:50;8.50;99.90
8114;DHT22;4099;52.684;9.918;2022-09-30T22:43:55;8.60;99.90
8114;DHT22;4099;52.684;9.918;2022-09-30T22:49:01;8.80;99.90
8114;DHT22;4099;52.684;9.918;2022-09-30T22:54:11;8.80;99.90
8114;DHT22;4099;52.684;9.918;2022-09-30T22:59:16;8.80;99.90
8114;DHT22;4099;52.684;9.918;2022-09-30T23:04:21;8.90;99.90
8114;DHT22;4099;52.684;9.918;2022-09-30T23:09:29;8.90;99.90
8114;DHT22;4099;52.684;9.918;2022-09-30T23:14:45;8.90;99.90
8114;DHT22;4099;52.684;9.918;2022-09-30T23:19:52;8.90;99.90
8114;DHT22;4099;52.684;9.918;2022-09-30T23:25:01;8.70;99.90
8114;DHT22;4099;52.684;9.918;2022-09-30T23:30:07;8.90;99.90
8114;DHT22;4099;52.684;9.918;2022-09-30T23:35:14;9.00;99.90
8114;DHT22;4099;52.684;9.918;2022-09-30T23:40:18;9.10;99.90
8114;DHT22;4099;52.684;9.918;2022-09-30T23:45:21;9.20;99.90
8114;DHT22;4099;52.684;9.918;2022-09-30T23:50:24;9.20;99.90
8114;DHT22;4099;52.684;9.918;2022-09-30T23:55:29;9.20;99.90
